Time;durP1;ratioP1;P1;durP2;ratioP2;P2;SDS_P1;SDS_P2;PMS_P1;PMS_P2;Temp;Humidity;BMP_temperature;BMP_pressure;BME280_temperature;BME280_humidity;BME280_pressure;Samples;Min_cycle;Max_cycle;Signal;HPM_P1;HPM_P2
2023/03/26 00:00:53;;;;;;;9.90;4.70;;;;;;;6.75;100.00;97684.54;131876;1289;25334;-81
2023/03/26 00:04:12;;;;;;;10.70;4.60;;;;;;;6.75;100.00;97686.33;131865;1289;22548;-83
2023/03/26 00:07:15;;;;;;;9.40;4.70;;;;;;;6.76;100.00;97685.02;131766;1289;25375;-83
2023/03/26 00:10:18;;;;;;;8.70;4.40;;;;;;;6.78;100.00;97685.80;131720;1289;22713;-82
2023/03/26 00:13:21;;;;;;;4.90;4.00;;;;;;;6.82;100.00;97692.40;131740;1289;22568;-81
2023/03/26 00:16:24;;;;;;;9.80;4.10;;;;;;;6.86;100.00;97688.92;131599;1289;22579;-81
2023/03/26 00:19:27;;;;;;;7.10;3.80;;;;;;;6.89;100.00;97688.40;131588;1289;24290;-81
2023/03/26 00:22:30;;;;;;;6.40;5.00;;;;;;;6.90;100.00;97689.42;131574;1289;25434;-81
2023/03/26 00:25:33;;;;;;;6.90;4.70;;;;;;;6.89;100.00;97679.13;131560;1289;24422;-81
2023/03/26 00:28:36;;;;;;;4.90;3.80;;;;;;;6.88;100.00;97680.67;131626;1284;24305;-81
2023/03/26 00:31:39;;;;;;;7.90;3.80;;;;;;;6.85;100.00;97682.39;131723;1289;22733;-82
2023/03/26 00:34:45;;;;;;;5.40;3.60;;;;;;;6.82;100.00;97681.59;132338;1289;24210;-82
2023/03/26 00:37:52;;;;;;;6.30;3.60;;;;;;;6.78;100.00;97675.02;132887;1289;22568;-82
2023/03/26 00:40:55;;;;;;;5.70;4.20;;;;;;;6.79;100.00;97669.79;133154;1289;22574;-81
2023/03/26 00:43:58;;;;;;;10.20;8.60;;;;;;;6.79;100.00;97660.90;132858;1289;22558;-82
2023/03/26 00:47:01;;;;;;;13.60;7.90;;;;;;;6.80;100.00;97658.55;131746;1289;22694;-81
2023/03/26 00:50:04;;;;;;;14.30;7.10;;;;;;;6.80;100.00;97658.88;131595;1289;22567;-81
2023/03/26 00:53:07;;;;;;;13.90;6.50;;;;;;;6.78;100.00;97654.77;131633;1289;25486;-82
2023/03/26 00:56:10;;;;;;;12.70;6.30;;;;;;;6.74;100.00;97654.93;131673;1289;22622;-82
2023/03/26 00:59:13;;;;;;;11.30;5.60;;;;;;;6.69;100.00;97654.52;131650;1289;23842;-81
2023/03/26 01:02:17;;;;;;;7.90;5.10;;;;;;;6.62;100.00;97653.75;131641;1289;24377;-80
2023/03/26 01:05:20;;;;;;;6.10;3.90;;;;;;;6.56;100.00;97652.34;131708;1289;22748;-81
2023/03/26 01:08:23;;;;;;;6.70;4.40;;;;;;;6.53;100.00;97648.87;131630;1289;23196;-83
2023/03/26 01:11:26;;;;;;;4.10;3.10;;;;;;;6.50;100.00;97648.36;131651;1289;22554;-81
2023/03/26 01:14:29;;;;;;;4.90;3.60;;;;;;;6.46;100.00;97649.52;131557;1289;22550;-81
2023/03/26 01:17:33;;;;;;;4.70;3.30;;;;;;;6.40;100.00;97651.60;131620;1289;22926;-82
2023/03/26 01:20:37;;;;;;;3.50;3.20;;;;;;;6.33;100.00;97649.54;131602;1285;24874;-82
2023/03/26 01:23:40;;;;;;;4.30;3.00;;;;;;;6.27;100.00;97652.22;131709;1289;24279;-81
2023/03/26 01:26:43;;;;;;;6.10;3.10;;;;;;;6.26;100.00;97650.13;131687;1289;24252;-82
2023/03/26 01:29:47;;;;;;;5.20;3.20;;;;;;;6.28;100.00;97644.02;131586;1289;23882;-83
2023/03/26 01:32:50;;;;;;;3.70;2.90;;;;;;;6.32;100.00;97640.65;132136;1289;22562;-81
2023/03/26 01:35:53;;;;;;;6.00;3.30;;;;;;;6.35;100.00;97638.82;133089;1289;25524;-82
2023/03/26 01:38:58;;;;;;;8.80;3.40;;;;;;;6.40;100.00;97638.29;132141;1289;24244;-81
2023/03/26 01:42:01;;;;;;;8.10;3.90;;;;;;;6.45;100.00;97644.31;131621;1289;22604;-83
2023/03/26 01:45:04;;;;;;;8.70;3.90;;;;;;;6.49;100.00;97642.17;131876;1289;26576;-81
2023/03/26 01:48:07;;;;;;;5.20;3.70;;;;;;;6.54;100.00;97640.56;131892;1286;24204;-82
2023/03/26 01:51:10;;;;;;;7.60;3.70;;;;;;;6.59;100.00;97640.09;131864;1288;22628;-80
2023/03/26 01:54:12;;;;;;;6.80;3.60;;;;;;;6.59;100.00;97636.19;131600;1289;22542;-83
2023/03/26 01:57:15;;;;;;;7.80;4.00;;;;;;;6.60;100.00;97634.37;131656;1289;22569;-82
2023/03/26 02:00:19;;;;;;;9.50;4.20;;;;;;;6.62;100.00;97635.51;131726;1289;24807;-86
2023/03/26 02:03:22;;;;;;;8.60;4.90;;;;;;;6.64;100.00;97630.89;132125;1289;24037;-83
2023/03/26 02:06:25;;;;;;;9.60;4.50;;;;;;;6.68;100.00;97628.10;131838;1289;22703;-82
2023/03/26 02:09:28;;;;;;;10.70;5.80;;;;;;;6.72;100.00;97622.54;131802;1289;22559;-82
2023/03/26 02:12:31;;;;;;;7.70;4.10;;;;;;;6.74;100.00;97620.15;131645;1289;22949;-81
2023/03/26 02:15:34;;;;;;;8.20;5.40;;;;;;;6.75;100.00;97620.21;131621;1289;25647;-81
2023/03/26 02:18:37;;;;;;;6.20;4.50;;;;;;;6.76;100.00;97625.71;131565;1289;22537;-81
2023/03/26 02:21:41;;;;;;;6.50;4.10;;;;;;;6.76;100.00;97623.23;131614;1289;22566;-82
2023/03/26 02:24:44;;;;;;;6.90;4.60;;;;;;;6.79;100.00;97624.52;131591;1289;22543;-81
2023/03/26 02:27:46;;;;;;;6.40;4.20;;;;;;;6.80;100.00;97620.80;131595;1286;25514;-82
2023/03/26 02:30:49;;;;;;;5.90;3.80;;;;;;;6.83;100.00;97621.59;131568;1289;22534;-82
2023/03/26 02:33:52;;;;;;;5.30;3.90;;;;;;;6.83;100.00;97626.23;131391;1289;323831;-82
2023/03/26 02:36:55;;;;;;;6.20;4.60;;;;;;;6.83;100.00;97623.48;131610;1289;24313;-82
2023/03/26 02:39:58;;;;;;;5.00;3.90;;;;;;;6.84;100.00;97623.67;131596;1289;24550;-82
2023/03/26 02:43:01;;;;;;;6.20;3.70;;;;;;;6.86;100.00;97630.60;131550;1267;22624;-82
2023/03/26 02:46:04;;;;;;;7.00;4.20;;;;;;;6.90;100.00;97626.04;131591;1289;22899;-82
2023/03/26 02:49:07;;;;;;;5.80;4.30;;;;;;;6.94;100.00;97627.92;131717;1289;24302;-83
2023/03/26 02:52:10;;;;;;;5.60;4.40;;;;;;;6.98;100.00;97623.94;131679;1289;22555;-84
2023/03/26 02:55:13;;;;;;;6.10;4.00;;;;;;;7.02;100.00;97626.97;131744;1284;23105;-82
2023/03/26 02:58:16;;;;;;;4.80;4.40;;;;;;;7.04;100.00;97622.75;131697;1289;22652;-81
2023/03/26 03:01:19;;;;;;;5.40;4.40;;;;;;;7.06;100.00;97621.84;131752;1289;22537;-82
2023/03/26 03:04:22;;;;;;;6.30;4.50;;;;;;;7.08;100.00;97619.48;131660;1289;24295;-81
2023/03/26 03:07:25;;;;;;;5.90;4.50;;;;;;;7.10;100.00;97620.90;131649;1289;22686;-82
2023/03/26 03:10:31;;;;;;;4.40;3.80;;;;;;;7.15;100.00;97620.40;131691;1289;23222;-83
2023/03/26 03:13:34;;;;;;;5.50;4.10;;;;;;;7.18;100.00;97623.59;131618;1289;23948;-83
2023/03/26 03:16:37;;;;;;;5.00;4.10;;;;;;;7.21;100.00;97623.80;131679;1289;22537;-84
2023/03/26 03:19:40;;;;;;;3.80;3.40;;;;;;;7.22;100.00;97628.01;132070;1289;22496;-83
2023/03/26 03:22:42;;;;;;;5.70;3.80;;;;;;;7.22;100.00;97622.42;133076;1288;22546;-83
2023/03/26 03:25:45;;;;;;;6.60;3.90;;;;;;;7.22;100.00;97626.42;132821;1289;25973;-83
2023/03/26 03:28:48;;;;;;;7.90;4.10;;;;;;;7.22;100.00;97627.98;132006;1289;22561;-82
2023/03/26 03:31:51;;;;;;;3.70;3.40;;;;;;;7.23;100.00;97627.70;131749;1289;24231;-82
2023/03/26 03:34:54;;;;;;;6.00;3.40;;;;;;;7.26;100.00;97630.89;131841;1289;22539;-82
2023/03/26 03:37:57;;;;;;;6.20;3.40;;;;;;;7.28;100.00;97624.05;131885;1289;22760;-82
2023/03/26 03:41:00;;;;;;;5.60;4.10;;;;;;;7.28;100.00;97622.25;131754;1289;25308;-83
2023/03/26 03:44:03;;;;;;;5.50;3.40;;;;;;;7.29;100.00;97622.45;131668;1289;25366;-84
2023/03/26 03:47:06;;;;;;;5.30;3.30;;;;;;;7.30;100.00;97622.34;131606;1289;25390;-82
2023/03/26 03:50:08;;;;;;;3.90;3.50;;;;;;;7.30;100.00;97625.86;131570;1289;25293;-82
2023/03/26 03:53:15;;;;;;;4.10;3.40;;;;;;;7.30;100.00;97622.23;131588;1273;25318;-82
2023/03/26 03:56:18;;;;;;;5.30;4.10;;;;;;;7.31;100.00;97626.80;131582;1289;22539;-82
2023/03/26 03:59:21;;;;;;;6.20;4.10;;;;;;;7.31;100.00;97626.44;131703;1289;22554;-82
2023/03/26 04:02:29;;;;;;;7.10;3.50;;;;;;;7.32;100.00;97624.94;131653;1289;22559;-81
2023/03/26 04:05:32;;;;;;;4.20;3.20;;;;;;;7.31;100.00;97623.27;131720;1289;22543;-82
2023/03/26 04:08:35;;;;;;;7.20;3.60;;;;;;;7.28;100.00;97616.45;131742;1289;22555;-85
2023/03/26 04:11:38;;;;;;;5.70;3.40;;;;;;;7.26;100.00;97614.98;131624;1289;22540;-82
2023/03/26 04:14:41;;;;;;;3.70;3.20;;;;;;;7.22;100.00;97611.17;131663;1289;22732;-82
2023/03/26 04:17:44;;;;;;;4.60;3.70;;;;;;;7.20;100.00;97603.95;131560;1289;22598;-82
2023/03/26 04:20:46;;;;;;;4.70;2.90;;;;;;;7.19;100.00;97602.48;131598;1289;22597;-81
2023/03/26 04:23:49;;;;;;;4.90;3.20;;;;;;;7.18;100.00;97602.36;131563;1289;22579;-82
2023/03/26 04:26:52;;;;;;;6.00;3.50;;;;;;;7.16;100.00;97597.73;131573;1289;25444;-82
2023/03/26 04:29:57;;;;;;;4.40;2.90;;;;;;;7.13;100.00;97598.90;131558;1289;22551;-82
2023/03/26 04:33:02;;;;;;;4.20;3.40;;;;;;;7.10;100.00;97597.00;131667;1288;22545;-82
2023/03/26 04:36:05;;;;;;;5.00;3.20;;;;;;;7.08;100.00;97593.65;131604;1289;22666;-83
2023/03/26 04:39:08;;;;;;;3.00;2.80;;;;;;;7.08;100.00;97596.90;131742;1278;22662;-82
2023/03/26 04:42:13;;;;;;;3.90;2.90;;;;;;;7.09;100.00;97597.83;131784;1289;23893;-80
2023/03/26 04:45:16;;;;;;;3.30;3.10;;;;;;;7.10;100.00;97597.35;131827;1265;22548;-82
2023/03/26 04:48:19;;;;;;;4.60;3.00;;;;;;;7.10;100.00;97596.56;131680;1289;23013;-81
2023/03/26 04:51:22;;;;;;;6.80;2.90;;;;;;;7.12;100.00;97600.34;131665;1289;22670;-81
2023/03/26 04:54:25;;;;;;;4.10;3.00;;;;;;;7.15;100.00;97599.54;131614;1289;22501;-81
2023/03/26 04:57:28;;;;;;;4.50;3.20;;;;;;;7.19;100.00;97598.00;131615;1289;24642;-82
2023/03/26 05:00:31;;;;;;;5.20;3.10;;;;;;;7.23;100.00;97604.52;131586;1289;22598;-82
2023/03/26 05:03:33;;;;;;;4.20;2.80;;;;;;;7.25;100.00;97602.45;131615;1280;23922;-82
2023/03/26 05:06:36;;;;;;;4.00;2.90;;;;;;;7.28;100.00;97602.98;131628;1289;22611;-83
2023/03/26 05:09:39;;;;;;;6.40;3.90;;;;;;;7.31;100.00;97602.57;131655;1289;23022;-83
2023/03/26 05:12:42;;;;;;;5.60;3.40;;;;;;;7.35;100.00;97600.77;131593;1289;22677;-82
2023/03/26 05:15:45;;;;;;;5.50;3.80;;;;;;;7.41;100.00;97597.63;131637;1289;25326;-83
2023/03/26 05:18:48;;;;;;;6.10;3.20;;;;;;;7.47;100.00;97602.55;131815;1289;24273;-82
2023/03/26 05:21:51;;;;;;;4.60;3.60;;;;;;;7.50;100.00;97606.76;131664;1289;25516;-82
2023/03/26 05:24:55;;;;;;;6.20;3.10;;;;;;;7.51;100.00;97606.30;131688;1289;25396;-83
2023/03/26 05:27:58;;;;;;;7.60;3.20;;;;;;;7.51;100.00;97607.47;131696;1289;24244;-83
2023/03/26 05:31:01;;;;;;;2.80;2.50;;;;;;;7.53;100.00;97604.51;131636;1289;25378;-87
2023/03/26 05:34:05;;;;;;;4.50;2.70;;;;;;;7.52;100.00;97606.15;131936;1289;24883;-85
2023/03/26 05:37:08;;;;;;;3.60;2.90;;;;;;;7.51;100.00;97605.63;131660;1289;25321;-84
2023/03/26 05:40:12;;;;;;;4.90;3.50;;;;;;;7.50;100.00;97601.52;131759;1289;25342;-84
2023/03/26 05:43:15;;;;;;;6.00;3.40;;;;;;;7.53;100.00;97604.08;131736;1289;22564;-85
2023/03/26 05:46:20;;;;;;;4.60;3.30;;;;;;;7.60;100.00;97606.50;131868;1289;22554;-85
2023/03/26 05:49:23;;;;;;;6.90;3.20;;;;;;;7.66;100.00;97602.31;131880;1289;22604;-84
2023/03/26 05:52:26;;;;;;;7.00;3.70;;;;;;;7.68;100.00;97603.83;131812;1289;24126;-84
2023/03/26 05:55:32;;;;;;;4.60;4.10;;;;;;;7.70;100.00;97604.14;131949;1289;25437;-84
2023/03/26 05:58:35;;;;;;;4.70;3.10;;;;;;;7.75;100.00;97604.60;131922;1284;25389;-81
2023/03/26 06:01:38;;;;;;;7.40;2.70;;;;;;;7.80;100.00;97606.65;131518;1289;25442;-82
2023/03/26 06:04:41;;;;;;;3.50;2.80;;;;;;;7.86;100.00;97609.47;131551;1289;25335;-83
2023/03/26 06:07:44;;;;;;;3.90;3.20;;;;;;;7.89;100.00;97614.27;131920;1289;22640;-83
2023/03/26 06:10:47;;;;;;;3.30;3.00;;;;;;;7.93;100.00;97612.52;131988;1289;22576;-84
2023/03/26 06:13:51;;;;;;;6.20;3.20;;;;;;;7.97;100.00;97610.16;132771;1284;22539;-84
2023/03/26 06:16:54;;;;;;;3.30;2.60;;;;;;;7.98;100.00;97609.65;132522;1289;22644;-84
2023/03/26 06:19:57;;;;;;;2.90;2.50;;;;;;;7.97;100.00;97617.07;132230;1289;24321;-85
2023/03/26 06:23:00;;;;;;;3.80;2.80;;;;;;;7.96;100.00;97623.16;131919;1289;25440;-84
2023/03/26 06:26:03;;;;;;;4.00;2.50;;;;;;;7.95;100.00;97615.59;132129;1289;26077;-85
2023/03/26 06:29:06;;;;;;;4.70;3.20;;;;;;;7.94;100.00;97618.99;132476;1289;22566;-87
2023/03/26 06:32:09;;;;;;;6.30;3.50;;;;;;;7.97;100.00;97618.67;132279;1289;22578;-88
2023/03/26 06:35:12;;;;;;;4.40;2.80;;;;;;;8.00;100.00;97616.75;131944;1289;22543;-87
2023/03/26 06:38:15;;;;;;;3.40;2.40;;;;;;;8.02;100.00;97611.88;132006;1289;22540;-86
2023/03/26 06:41:17;;;;;;;3.20;2.70;;;;;;;8.02;100.00;97614.43;131917;1289;24401;-86
2023/03/26 06:44:20;;;;;;;3.60;2.40;;;;;;;8.01;100.00;97613.55;131960;1289;22543;-87
2023/03/26 06:47:23;;;;;;;3.20;2.40;;;;;;;8.01;100.00;97611.90;131982;1289;22561;-85
2023/03/26 06:50:26;;;;;;;3.40;3.10;;;;;;;8.05;100.00;97614.55;132004;1289;22561;-86
2023/03/26 06:53:29;;;;;;;5.50;2.40;;;;;;;8.12;100.00;97617.64;132282;1289;23473;-85
2023/03/26 06:56:31;;;;;;;4.80;2.80;;;;;;;8.21;100.00;97613.89;132013;1289;24815;-87
2023/03/26 06:59:34;;;;;;;5.60;2.80;;;;;;;8.28;100.00;97610.45;131944;1289;25552;-85
2023/03/26 07:02:37;;;;;;;2.90;2.40;;;;;;;8.40;100.00;97613.03;131892;1289;25270;-86
2023/03/26 07:05:40;;;;;;;6.50;3.50;;;;;;;8.55;100.00;97608.78;132014;1289;24185;-85
2023/03/26 07:08:44;;;;;;;4.70;2.90;;;;;;;8.77;100.00;97610.88;134228;1289;26631;-85
2023/03/26 07:11:47;;;;;;;7.70;3.60;;;;;;;9.11;100.00;97611.13;134678;1289;22599;-83
2023/03/26 07:14:49;;;;;;;5.70;3.40;;;;;;;9.36;100.00;97605.05;132283;1289;22541;-86
2023/03/26 07:17:53;;;;;;;2.70;2.20;;;;;;;9.52;100.00;97599.72;131984;1289;22552;-84
2023/03/26 07:20:55;;;;;;;2.40;2.20;;;;;;;9.75;100.00;97603.15;131956;1289;22624;-84
2023/03/26 07:23:58;;;;;;;2.70;2.40;;;;;;;10.09;100.00;97592.75;131920;1289;22538;-83
2023/03/26 07:27:01;;;;;;;2.80;2.60;;;;;;;10.26;100.00;97593.60;131656;1289;22563;-83
2023/03/26 07:30:04;;;;;;;3.30;2.30;;;;;;;10.20;100.00;97597.41;131595;1289;22656;-83
2023/03/26 07:33:07;;;;;;;4.30;3.00;;;;;;;10.09;100.00;97590.94;131619;1283;25439;-85
2023/03/26 07:36:10;;;;;;;2.90;2.60;;;;;;;10.09;100.00;97601.20;131844;1289;22538;-85
2023/03/26 07:39:13;;;;;;;7.10;2.70;;;;;;;10.13;100.00;97602.92;131965;1289;25300;-88
2023/03/26 07:42:16;;;;;;;3.80;2.30;;;;;;;10.24;100.00;97603.05;131918;1289;22580;-88
2023/03/26 07:45:19;;;;;;;5.80;2.80;;;;;;;10.44;100.00;97611.88;131930;1289;24011;-86
2023/03/26 07:48:24;;;;;;;4.40;2.60;;;;;;;10.49;100.00;97602.52;131989;1289;22648;-86
2023/03/26 07:51:27;;;;;;;2.60;2.40;;;;;;;10.40;100.00;97605.45;132269;1288;22536;-92
2023/03/26 07:54:31;;;;;;;3.90;2.40;;;;;;;10.29;100.00;97613.04;132237;1289;22563;-85
2023/03/26 07:57:34;;;;;;;6.20;3.00;;;;;;;10.23;100.00;97612.15;131937;1285;22552;-84
2023/03/26 08:00:37;;;;;;;4.40;2.20;;;;;;;10.28;100.00;97608.89;131994;1287;25471;-84
2023/03/26 08:03:40;;;;;;;9.10;2.50;;;;;;;10.45;100.00;97609.70;131847;1289;22547;-87
2023/03/26 08:06:43;;;;;;;2.90;2.20;;;;;;;10.53;100.00;97616.92;132932;1289;25436;-85
2023/03/26 08:09:46;;;;;;;6.70;5.10;;;;;;;10.54;100.00;97616.73;132964;1289;22539;-85
2023/03/26 08:12:49;;;;;;;6.00;4.70;;;;;;;10.54;100.00;97614.27;132472;1289;24239;-85
2023/03/26 08:15:53;;;;;;;4.00;2.70;;;;;;;10.59;100.00;97613.92;132133;1289;22600;-85
2023/03/26 08:18:56;;;;;;;5.00;4.40;;;;;;;10.73;100.00;97609.26;132066;1289;22630;-85
2023/03/26 08:22:00;;;;;;;5.50;3.90;;;;;;;10.85;100.00;97608.96;131919;1289;26736;-85
2023/03/26 08:25:03;;;;;;;6.40;2.90;;;;;;;10.94;100.00;97608.48;131938;1289;25368;-85
2023/03/26 08:28:06;;;;;;;2.90;2.00;;;;;;;10.94;99.89;97615.62;131899;1289;22592;-86
2023/03/26 08:31:09;;;;;;;1.90;1.60;;;;;;;10.97;99.86;97607.67;131963;1289;22540;-86
2023/03/26 08:34:12;;;;;;;2.90;1.50;;;;;;;11.03;99.13;97613.52;132000;1289;25558;-85
2023/03/26 08:37:15;;;;;;;1.60;1.20;;;;;;;11.18;99.79;97608.41;131950;1289;23010;-86
2023/03/26 08:40:18;;;;;;;1.90;1.00;;;;;;;11.33;99.62;97604.83;131891;1289;22566;-87
2023/03/26 08:43:21;;;;;;;2.40;1.10;;;;;;;11.45;98.05;97606.52;131929;1277;22650;-86
2023/03/26 08:46:24;;;;;;;1.60;1.40;;;;;;;11.43;93.72;97611.02;131935;1289;22550;-86
2023/03/26 08:49:27;;;;;;;1.10;1.00;;;;;;;11.34;93.84;97605.73;131968;1289;25265;-86
2023/03/26 08:52:30;;;;;;;2.10;1.10;;;;;;;11.34;93.77;97609.10;132021;1289;24400;-85
2023/03/26 08:55:33;;;;;;;1.30;1.20;;;;;;;11.34;94.94;97602.23;132199;1274;24887;-90
2023/03/26 08:58:36;;;;;;;1.80;1.00;;;;;;;11.43;96.72;97606.85;132305;1289;22536;-90
2023/03/26 09:01:39;;;;;;;1.40;0.80;;;;;;;11.61;93.96;97603.59;133392;1289;23384;-89
2023/03/26 09:04:42;;;;;;;1.50;1.40;;;;;;;11.70;91.60;97600.48;134268;1289;22638;-89
2023/03/26 09:07:45;;;;;;;2.80;1.60;;;;;;;11.73;91.19;97606.21;135740;1289;22278;-90
2023/03/26 09:10:48;;;;;;;1.90;1.80;;;;;;;11.75;90.13;97597.84;135764;1277;22674;-90
2023/03/26 09:13:51;;;;;;;1.80;1.40;;;;;;;11.75;88.78;97598.31;133442;1289;22642;-90
2023/03/26 09:16:54;;;;;;;1.30;1.20;;;;;;;11.75;88.73;97602.23;132786;1289;22552;-89
2023/03/26 09:19:57;;;;;;;2.60;1.40;;;;;;;11.57;85.82;97596.67;132308;1277;22749;-86
2023/03/26 09:23:00;;;;;;;2.70;1.40;;;;;;;11.41;86.22;97596.58;131925;1289;24255;-87
2023/03/26 09:26:03;;;;;;;1.70;1.30;;;;;;;11.35;86.62;97591.72;132077;1271;24295;-87
2023/03/26 09:29:06;;;;;;;1.70;1.40;;;;;;;11.31;84.58;97594.34;132341;1289;22532;-87
2023/03/26 09:32:09;;;;;;;1.00;1.00;;;;;;;11.23;82.85;97591.27;132135;1289;23019;-87
2023/03/26 09:35:12;;;;;;;2.40;1.50;;;;;;;11.11;83.61;97598.24;133991;1289;22544;-87
2023/03/26 09:38:15;;;;;;;2.90;1.30;;;;;;;11.02;83.74;97599.30;131974;1289;23184;-87
2023/03/26 09:41:18;;;;;;;2.00;1.50;;;;;;;11.03;85.74;97602.36;132105;1289;22651;-87
2023/03/26 09:44:21;;;;;;;1.30;1.20;;;;;;;11.12;86.34;97600.98;131892;1289;22573;-87
2023/03/26 09:47:24;;;;;;;2.30;1.50;;;;;;;11.16;85.27;97603.75;131912;1285;22539;-87
2023/03/26 09:50:28;;;;;;;3.80;1.90;;;;;;;11.11;85.40;97603.94;132196;1289;23909;-87
2023/03/26 09:53:31;;;;;;;4.10;1.50;;;;;;;10.99;85.11;97600.61;134014;1289;22649;-85
2023/03/26 09:56:34;;;;;;;2.60;1.20;;;;;;;10.94;86.42;97606.39;135419;1289;22623;-87
2023/03/26 09:59:37;;;;;;;1.30;1.20;;;;;;;10.98;86.37;97606.91;134657;1289;24047;-84
2023/03/26 10:02:40;;;;;;;3.50;1.90;;;;;;;11.02;85.37;97600.87;132740;1289;22538;-87
2023/03/26 10:05:43;;;;;;;4.60;2.00;;;;;;;10.98;84.03;97592.64;132336;1289;22552;-89
2023/03/26 10:08:46;;;;;;;2.60;1.90;;;;;;;10.96;83.99;97595.05;132327;1289;23879;-88
2023/03/26 10:11:49;;;;;;;1.70;1.30;;;;;;;11.02;83.74;97592.86;132683;1289;22977;-87
2023/03/26 10:14:52;;;;;;;2.80;1.60;;;;;;;11.09;82.47;97587.34;135518;1289;22591;-86
2023/03/26 10:17:55;;;;;;;3.80;1.60;;;;;;;11.17;81.33;97583.75;133559;1289;22569;-85
2023/03/26 10:20:58;;;;;;;2.50;1.60;;;;;;;11.32;82.04;97586.28;132241;1289;24242;-85
2023/03/26 10:24:01;;;;;;;2.60;2.10;;;;;;;11.50;82.94;97589.64;132591;1289;22608;-88
2023/03/26 10:27:06;;;;;;;1.90;1.60;;;;;;;11.66;82.44;97588.05;132339;1289;24285;-85
2023/03/26 10:30:09;;;;;;;4.60;2.80;;;;;;;11.76;81.97;97592.14;132240;1289;22599;-89
2023/03/26 10:33:12;;;;;;;3.10;2.00;;;;;;;11.82;81.48;97594.01;132133;1289;22653;-90
2023/03/26 10:36:15;;;;;;;1.80;1.60;;;;;;;11.85;81.60;97592.90;132149;1289;22544;-88
2023/03/26 10:39:19;;;;;;;3.80;1.50;;;;;;;11.87;80.89;97589.29;131947;1289;25447;-84
2023/03/26 10:42:22;;;;;;;3.50;1.80;;;;;;;11.82;80.46;97589.51;131624;1288;22787;-86
2023/03/26 10:45:25;;;;;;;1.60;1.40;;;;;;;11.83;79.92;97584.54;131856;1289;25424;-84
2023/03/26 10:48:27;;;;;;;4.40;1.70;;;;;;;11.83;78.42;97589.16;131773;1286;22519;-84
2023/03/26 10:51:30;;;;;;;1.60;1.30;;;;;;;11.84;76.11;97583.41;131621;1289;24233;-84
2023/03/26 10:54:33;;;;;;;2.50;1.40;;;;;;;11.82;75.53;97582.85;131702;1289;22548;-84
2023/03/26 10:57:36;;;;;;;1.30;1.20;;;;;;;11.90;77.02;97578.45;131668;1289;23908;-84
2023/03/26 11:00:39;;;;;;;1.50;1.40;;;;;;;12.09;76.60;97570.29;131663;1289;22687;-84
2023/03/26 11:03:42;;;;;;;1.10;1.00;;;;;;;12.27;75.95;97569.76;131761;1289;25313;-87
2023/03/26 11:06:45;;;;;;;1.70;1.10;;;;;;;12.29;74.55;97572.48;131781;1289;25265;-84
2023/03/26 11:09:48;;;;;;;2.00;1.60;;;;;;;12.27;71.81;97564.14;131743;1289;22573;-84
2023/03/26 11:12:51;;;;;;;2.40;2.00;;;;;;;12.35;71.06;97561.36;131632;1289;22567;-85
2023/03/26 11:15:54;;;;;;;2.50;1.60;;;;;;;12.48;68.75;97557.83;131645;1289;25802;-85
2023/03/26 11:18:56;;;;;;;2.10;1.50;;;;;;;12.65;69.83;97551.83;131621;1289;22564;-84
2023/03/26 11:22:00;;;;;;;1.90;1.50;;;;;;;12.79;69.37;97553.23;131532;1289;26572;-84
2023/03/26 11:25:02;;;;;;;1.50;1.40;;;;;;;12.91;67.98;97555.44;131535;1289;22546;-84
2023/03/26 11:28:08;;;;;;;1.50;1.40;;;;;;;12.87;66.73;97555.37;131634;1289;22604;-86
2023/03/26 11:31:11;;;;;;;3.20;1.30;;;;;;;12.74;67.81;97557.38;131707;1289;25429;-85
2023/03/26 11:34:14;;;;;;;2.70;1.30;;;;;;;12.56;68.28;97559.42;131715;1289;25318;-85
2023/03/26 11:37:17;;;;;;;1.40;1.00;;;;;;;12.35;69.54;97568.22;131755;1287;22543;-85
2023/03/26 11:40:22;;;;;;;1.50;1.40;;;;;;;12.18;70.60;97572.91;131683;1289;25509;-85
2023/03/26 11:43:25;;;;;;;3.40;1.50;;;;;;;12.02;72.28;97569.85;131617;1289;22527;-84
2023/03/26 11:46:28;;;;;;;3.90;2.00;;;;;;;11.98;74.42;97573.05;131654;1289;22665;-84
2023/03/26 11:49:31;;;;;;;1.60;1.50;;;;;;;12.03;75.23;97573.05;131623;1289;22597;-85
2023/03/26 11:52:34;;;;;;;3.90;2.00;;;;;;;11.96;75.13;97573.36;131621;1289;22481;-84
2023/03/26 11:55:38;;;;;;;3.00;2.60;;;;;;;11.82;76.32;97569.27;131574;1289;22638;-84
2023/03/26 11:58:41;;;;;;;4.80;2.70;;;;;;;11.72;77.71;97565.55;131528;1289;23021;-85
2023/03/26 12:01:49;;;;;;;2.00;1.80;;;;;;;11.75;78.05;97563.42;131691;1289;23895;-84
2023/03/26 12:04:54;;;;;;;2.50;1.40;;;;;;;11.67;77.79;97562.44;131825;1289;22543;-84
2023/03/26 12:07:57;;;;;;;1.00;1.00;;;;;;;11.67;78.55;97555.54;131860;1289;22539;-85
2023/03/26 12:11:00;;;;;;;0.90;0.80;;;;;;;11.73;78.68;97553.05;133436;1289;25444;-83
2023/03/26 12:14:03;;;;;;;4.10;1.30;;;;;;;11.75;78.04;97546.48;132980;1289;22627;-84
2023/03/26 12:17:06;;;;;;;2.30;1.30;;;;;;;11.76;78.87;97543.16;132949;1289;22674;-84
2023/03/26 12:20:09;;;;;;;1.20;1.10;;;;;;;11.72;77.37;97534.65;131802;1289;22605;-85
2023/03/26 12:23:12;;;;;;;1.20;1.10;;;;;;;11.65;77.44;97532.92;132056;1289;24241;-86
2023/03/26 12:26:15;;;;;;;1.60;1.20;;;;;;;11.63;77.83;97532.19;131985;1289;22501;-85
2023/03/26 12:29:19;;;;;;;1.40;1.20;;;;;;;11.59;77.56;97534.09;132056;1289;25555;-85
2023/03/26 12:32:22;;;;;;;2.60;1.00;;;;;;;11.50;75.19;97527.20;131915;1289;22543;-86
2023/03/26 12:35:26;;;;;;;4.20;1.20;;;;;;;11.48;75.28;97527.45;133260;1289;22669;-84
2023/03/26 12:38:31;;;;;;;2.40;1.40;;;;;;;11.64;76.80;97521.97;133992;1289;23802;-85
2023/03/26 12:41:34;;;;;;;1.40;1.30;;;;;;;11.88;78.45;97515.55;135129;1289;22551;-86
2023/03/26 12:44:37;;;;;;;1.70;1.40;;;;;;;12.08;78.11;97517.19;132561;1289;22539;-85
2023/03/26 12:47:41;;;;;;;3.00;1.90;;;;;;;12.26;77.35;97510.17;133042;1289;25441;-87
2023/03/26 12:50:44;;;;;;;2.00;1.60;;;;;;;12.40;76.94;97506.83;132468;1289;24213;-85
2023/03/26 12:53:47;;;;;;;1.50;1.40;;;;;;;12.49;76.22;97505.61;132181;1289;23315;-85
2023/03/26 12:56:50;;;;;;;2.80;1.70;;;;;;;12.55;76.06;97500.05;131968;1289;22748;-89
2023/03/26 12:59:53;;;;;;;2.20;1.60;;;;;;;12.59;74.80;97501.30;132044;1289;22568;-88
2023/03/26 13:02:57;;;;;;;1.80;1.70;;;;;;;12.59;74.46;97502.78;131933;1289;24322;-85
2023/03/26 13:06:00;;;;;;;2.70;2.10;;;;;;;12.58;74.04;97495.77;132184;1289;23324;-86
2023/03/26 13:09:03;;;;;;;2.10;1.70;;;;;;;12.58;73.19;97491.61;132192;1289;22593;-88
2023/03/26 13:12:06;;;;;;;1.70;1.60;;;;;;;12.54;72.26;97491.84;132258;1289;24327;-89
2023/03/26 13:15:09;;;;;;;2.30;1.70;;;;;;;12.62;72.05;97484.13;132007;1289;22679;-86
2023/03/26 13:18:12;;;;;;;2.30;1.60;;;;;;;12.77;71.37;97487.82;131893;1289;25400;-86
2023/03/26 13:21:16;;;;;;;1.10;1.00;;;;;;;12.88;69.17;97486.25;131966;1289;22836;-87
2023/03/26 13:24:18;;;;;;;1.60;0.90;;;;;;;12.91;67.08;97482.73;132530;1285;23139;-88
2023/03/26 13:27:21;;;;;;;1.50;1.40;;;;;;;12.90;67.37;97478.06;131949;1289;22500;-90
2023/03/26 13:30:25;;;;;;;2.10;1.30;;;;;;;12.86;67.09;97471.88;132049;1289;22547;-90
2023/03/26 13:33:27;;;;;;;3.10;1.60;;;;;;;12.82;67.22;97467.02;132112;1289;22543;-90
2023/03/26 13:36:30;;;;;;;1.20;0.90;;;;;;;12.86;67.61;97464.21;131883;1289;22659;-86
2023/03/26 13:39:33;;;;;;;0.80;0.80;;;;;;;12.95;66.70;97464.31;131912;1289;25309;-87
2023/03/26 13:42:36;;;;;;;1.40;1.30;;;;;;;13.02;67.04;97463.04;131897;1289;23897;-86
2023/03/26 13:45:39;;;;;;;1.70;1.40;;;;;;;13.07;67.01;97464.27;131903;1289;22554;-87
2023/03/26 13:48:42;;;;;;;1.70;1.60;;;;;;;13.08;66.93;97465.46;131869;1289;25609;-87
2023/03/26 13:51:44;;;;;;;2.00;1.60;;;;;;;12.97;66.90;97462.39;131880;1283;22627;-86
2023/03/26 13:54:47;;;;;;;1.60;1.60;;;;;;;12.87;67.69;97460.39;131915;1289;25516;-87
2023/03/26 13:57:50;;;;;;;1.50;1.40;;;;;;;12.89;68.27;97457.05;131957;1289;25605;-87
2023/03/26 14:00:53;;;;;;;1.70;1.60;;;;;;;12.95;67.97;97450.40;132052;1289;22559;-87
2023/03/26 14:03:56;;;;;;;2.40;2.20;;;;;;;12.93;67.53;97448.67;134069;1289;22598;-85
2023/03/26 14:06:59;;;;;;;1.70;1.60;;;;;;;12.83;67.35;97447.95;134092;1289;24332;-84
2023/03/26 14:10:02;;;;;;;1.50;1.40;;;;;;;12.67;67.52;97445.92;132114;1289;22559;-87